createdAt,value
2023-11-25T00:01:38.501Z,-2.40
2023-11-25T00:04:07.067Z,-2.40
2023-11-25T00:06:34.734Z,-2.50
2023-11-25T00:09:02.501Z,-2.50
2023-11-25T00:11:30.405Z,-2.60
2023-11-25T00:13:58.042Z,-2.50
2023-11-25T00:16:25.548Z,-2.50
2023-11-25T00:18:53.119Z,-2.40
2023-11-25T00:21:20.620Z,-2.50
2023-11-25T00:23:48.821Z,-2.60
2023-11-25T00:26:16.289Z,-2.60
2023-11-25T00:28:53.763Z,-2.60
2023-11-25T00:31:21.488Z,-2.50
2023-11-25T00:33:49.295Z,-2.50
2023-11-25T00:36:16.834Z,-2.40
2023-11-25T00:38:44.597Z,-2.50
2023-11-25T00:41:12.654Z,-2.50
2023-11-25T00:43:40.292Z,-2.50
2023-11-25T00:46:08.883Z,-2.50
2023-11-25T00:48:36.954Z,-2.50
2023-11-25T00:51:05.060Z,-2.40
2023-11-25T00:53:32.778Z,-2.50
2023-11-25T00:56:01.526Z,-2.60
2023-11-25T00:58:29.276Z,-2.60
2023-11-25T01:00:56.926Z,-2.70
2023-11-25T01:03:25.712Z,-2.70
2023-11-25T01:05:54.411Z,-2.80
2023-11-25T01:08:22.822Z,-2.90
2023-11-25T01:10:50.414Z,-2.90
2023-11-25T01:13:18.057Z,-2.90
2023-11-25T01:15:45.982Z,-2.90
2023-11-25T01:18:14.151Z,-2.90
2023-11-25T01:20:41.659Z,-3.00
2023-11-25T01:23:09.341Z,-3.00
2023-11-25T01:25:36.967Z,-3.10
2023-11-25T01:28:05.225Z,-3.10
2023-11-25T01:30:34.184Z,-3.10
2023-11-25T01:33:03.798Z,-3.10
2023-11-25T01:35:31.368Z,-3.10
2023-11-25T01:37:58.964Z,-3.10
2023-11-25T01:40:26.666Z,-3.10
2023-11-25T01:42:59.102Z,-3.10
2023-11-25T01:45:26.942Z,-3.10
2023-11-25T01:47:56.027Z,-3.20
2023-11-25T01:50:24.241Z,-3.20
2023-11-25T01:52:54.384Z,-3.20
2023-11-25T01:55:23.348Z,-3.30
2023-11-25T01:57:51.065Z,-3.30
2023-11-25T02:00:19.153Z,-3.30
2023-11-25T02:02:50.646Z,-3.30
2023-11-25T02:05:18.395Z,-3.30
2023-11-25T02:07:46.493Z,-3.40
2023-11-25T02:10:14.449Z,-3.40
2023-11-25T02:12:42.017Z,-3.40
2023-11-25T02:15:12.458Z,-3.50
2023-11-25T02:17:42.026Z,-3.40
2023-11-25T02:20:11.653Z,-3.40
2023-11-25T02:22:39.444Z,-3.50
2023-11-25T02:25:07.368Z,-3.50
2023-11-25T02:27:35.888Z,-3.50
2023-11-25T02:30:07.314Z,-3.60
2023-11-25T02:32:35.126Z,-3.50
2023-11-25T02:35:02.734Z,-3.60
2023-11-25T02:37:31.570Z,-3.60
2023-11-25T02:39:59.102Z,-3.60
2023-11-25T02:42:27.428Z,-3.60
2023-11-25T02:44:56.937Z,-3.60
2023-11-25T02:47:24.712Z,-3.60
2023-11-25T02:49:52.310Z,-3.70
2023-11-25T02:52:20.850Z,-3.80
2023-11-25T02:54:49.268Z,-3.80
2023-11-25T02:57:20.317Z,-3.80
2023-11-25T02:59:48.326Z,-3.80
2023-11-25T03:02:17.275Z,-3.80
2023-11-25T03:04:46.839Z,-3.80
2023-11-25T03:07:15.152Z,-3.80
2023-11-25T03:09:46.151Z,-3.80
2023-11-25T03:12:13.679Z,-3.80
2023-11-25T03:14:41.279Z,-3.80
2023-11-25T03:17:10.118Z,-3.80
2023-11-25T03:19:38.353Z,-3.90
2023-11-25T03:22:06.034Z,-3.90
2023-11-25T03:24:33.634Z,-4.00
2023-11-25T03:27:01.251Z,-4.00
2023-11-25T03:29:28.970Z,-4.10
2023-11-25T03:31:57.543Z,-4.10
2023-11-25T03:34:26.764Z,-4.10
2023-11-25T03:36:54.500Z,-4.10
2023-11-25T03:39:22.974Z,-4.10
2023-11-25T03:41:50.628Z,-4.10
2023-11-25T03:44:18.107Z,-4.10
2023-11-25T03:46:46.243Z,-4.10
2023-11-25T03:49:15.265Z,-4.10
2023-11-25T03:51:42.955Z,-4.10
2023-11-25T03:54:10.530Z,-4.20
2023-11-25T03:56:38.418Z,-4.20
2023-11-25T03:59:05.996Z,-4.30
2023-11-25T04:01:33.953Z,-4.30
2023-11-25T04:04:03.073Z,-4.20
2023-11-25T04:06:31.731Z,-4.30
2023-11-25T04:08:59.447Z,-4.20
2023-11-25T04:11:27.011Z,-4.20
2023-11-25T04:13:58.406Z,-4.30
2023-11-25T04:16:25.948Z,-4.30
2023-11-25T04:18:53.544Z,-4.40
2023-11-25T04:21:24.823Z,-4.40
2023-11-25T04:23:56.935Z,-4.40
2023-11-25T04:26:26.051Z,-4.40
2023-11-25T04:28:54.008Z,-4.40
2023-11-25T04:31:21.843Z,-4.40
2023-11-25T04:33:49.958Z,-4.50
2023-11-25T04:36:19.961Z,-4.50
2023-11-25T04:38:47.771Z,-4.60
2023-11-25T04:41:15.380Z,-4.60
2023-11-25T04:43:43.060Z,-4.60
2023-11-25T04:46:10.969Z,-4.60
2023-11-25T04:48:38.568Z,-4.70
2023-11-25T04:51:06.217Z,-4.70
2023-11-25T04:53:33.643Z,-4.60
2023-11-25T04:56:01.204Z,-4.50
2023-11-25T04:58:28.889Z,-4.50
2023-11-25T05:00:58.689Z,-4.50
2023-11-25T05:03:27.149Z,-4.60
2023-11-25T05:05:54.832Z,-4.50
2023-11-25T05:08:22.390Z,-4.50
2023-11-25T05:10:50.252Z,-4.40
2023-11-25T05:13:17.807Z,-4.50
2023-11-25T05:15:46.181Z,-4.50
2023-11-25T05:18:14.478Z,-4.60
2023-11-25T05:20:42.004Z,-4.60
2023-11-25T05:23:09.645Z,-4.60
2023-11-25T05:25:37.245Z,-4.70
2023-11-25T05:28:05.022Z,-4.70
2023-11-25T05:30:32.613Z,-4.60
2023-11-25T05:33:00.186Z,-4.50
2023-11-25T05:35:27.881Z,-4.30
2023-11-25T05:37:55.484Z,-4.10
2023-11-25T05:40:23.082Z,-4.00
2023-11-25T05:42:55.072Z,-3.90
2023-11-25T05:45:28.175Z,-3.90
2023-11-25T05:47:56.503Z,-3.80
2023-11-25T05:50:24.505Z,-3.70
2023-11-25T05:52:52.615Z,-3.70
2023-11-25T05:55:20.920Z,-3.70
2023-11-25T05:57:51.553Z,-3.60
2023-11-25T06:00:20.381Z,-3.50
2023-11-25T06:02:48.312Z,-3.40
2023-11-25T06:05:17.124Z,-3.30
2023-11-25T06:07:44.654Z,-3.30
2023-11-25T06:10:12.673Z,-3.20
2023-11-25T06:12:40.438Z,-3.10
2023-11-25T06:15:08.447Z,-3.00
2023-11-25T06:17:36.298Z,-3.00
2023-11-25T06:20:04.248Z,-2.90
2023-11-25T06:22:31.867Z,-2.90
2023-11-25T06:25:01.473Z,-2.80
2023-11-25T06:27:29.032Z,-2.80
2023-11-25T06:29:56.750Z,-2.70
2023-11-25T06:32:25.737Z,-2.70
2023-11-25T06:34:53.429Z,-2.60
2023-11-25T06:37:21.019Z,-2.60
2023-11-25T06:39:49.846Z,-2.50
2023-11-25T06:42:17.575Z,-2.50
2023-11-25T06:44:48.509Z,-2.50
2023-11-25T06:47:16.296Z,-2.50
2023-11-25T06:49:47.492Z,-2.50
2023-11-25T06:52:15.130Z,-2.50
2023-11-25T06:54:42.646Z,-2.50
2023-11-25T06:57:10.354Z,-2.50
2023-11-25T06:59:37.944Z,-2.60
2023-11-25T07:02:06.375Z,-2.60
2023-11-25T07:04:33.893Z,-2.80
2023-11-25T07:07:01.538Z,-2.80
2023-11-25T07:09:31.276Z,-2.80
2023-11-25T07:11:58.873Z,-2.90
2023-11-25T07:14:26.911Z,-2.80
2023-11-25T07:16:54.547Z,-2.90
2023-11-25T07:19:23.447Z,-2.80
2023-11-25T07:21:51.682Z,-2.80
2023-11-25T07:24:20.027Z,-2.80
2023-11-25T07:26:53.300Z,-2.90
2023-11-25T07:29:21.168Z,-2.80
2023-11-25T07:31:49.055Z,-2.90
2023-11-25T07:34:16.878Z,-2.90
2023-11-25T07:36:47.051Z,-2.90
2023-11-25T07:39:20.758Z,-3.00
2023-11-25T07:41:52.395Z,-3.00
2023-11-25T07:44:20.435Z,-3.00
2023-11-25T07:46:48.038Z,-2.90
2023-11-25T07:49:15.697Z,-2.90
2023-11-25T07:51:43.275Z,-3.00
2023-11-25T07:54:10.779Z,-2.90
2023-11-25T07:56:38.841Z,-2.90
2023-11-25T07:59:06.918Z,-2.80
2023-11-25T08:01:35.160Z,-2.80
2023-11-25T08:04:02.951Z,-2.80
2023-11-25T08:06:30.657Z,-2.90
2023-11-25T08:08:58.579Z,-2.90
2023-11-25T08:11:27.304Z,-2.90
2023-11-25T08:13:55.055Z,-3.00
2023-11-25T08:16:22.837Z,-3.00
2023-11-25T08:18:50.557Z,-3.00
2023-11-25T08:21:18.103Z,-3.00
2023-11-25T08:23:45.732Z,-3.10
2023-11-25T08:26:20.300Z,-3.00
2023-11-25T08:28:50.163Z,-3.00
2023-11-25T08:31:18.394Z,-3.00
2023-11-25T08:33:46.822Z,-3.00
2023-11-25T08:36:15.573Z,-2.90
2023-11-25T08:38:43.183Z,-2.80
2023-11-25T08:41:11.280Z,-2.60
2023-11-25T08:43:39.985Z,-2.50
2023-11-25T08:46:08.018Z,-2.50
2023-11-25T08:48:36.136Z,-2.30
2023-11-25T08:51:08.952Z,-2.20
2023-11-25T08:53:37.012Z,-2.10
2023-11-25T08:56:05.980Z,-2.00
2023-11-25T08:58:33.989Z,-1.90
2023-11-25T09:01:02.869Z,-1.90
2023-11-25T09:03:30.692Z,-1.90
2023-11-25T09:05:59.553Z,-1.80
2023-11-25T09:08:27.825Z,-1.80
2023-11-25T09:10:57.777Z,-1.60
2023-11-25T09:13:25.652Z,-1.50
2023-11-25T09:15:53.301Z,-1.40
2023-11-25T09:18:22.023Z,-1.30
2023-11-25T09:20:50.563Z,-1.20
2023-11-25T09:23:18.909Z,-1.10
2023-11-25T09:25:47.395Z,-1.10
2023-11-25T09:28:15.887Z,-1.10
2023-11-25T09:30:44.071Z,-1.00
2023-11-25T09:33:12.523Z,-1.00
2023-11-25T09:35:40.877Z,-1.00
2023-11-25T09:38:08.952Z,-1.00
2023-11-25T09:40:36.840Z,-1.00
2023-11-25T09:43:04.812Z,-1.00
2023-11-25T09:45:33.158Z,-0.90
2023-11-25T09:48:02.459Z,-0.90
2023-11-25T09:50:30.237Z,-0.90
2023-11-25T09:53:00.458Z,-0.90
2023-11-25T09:55:31.742Z,-0.90
2023-11-25T09:58:09.318Z,-0.90
2023-11-25T10:00:39.290Z,-0.90
2023-11-25T10:03:09.385Z,-0.90
2023-11-25T10:05:38.385Z,-0.80
2023-11-25T10:08:08.131Z,-0.80
2023-11-25T10:10:36.996Z,-0.80
2023-11-25T10:13:07.592Z,-0.80
2023-11-25T10:15:45.781Z,-0.70
2023-11-25T10:18:14.422Z,-0.70
2023-11-25T10:20:44.357Z,-0.60
2023-11-25T10:23:21.471Z,-0.60
2023-11-25T10:25:53.645Z,-0.60
2023-11-25T10:28:22.270Z,-0.50
2023-11-25T10:31:01.045Z,-0.40
2023-11-25T10:33:29.243Z,-0.40
2023-11-25T10:35:58.256Z,-0.40
2023-11-25T10:38:31.056Z,-0.30
2023-11-25T10:41:02.612Z,-0.20
2023-11-25T10:43:34.057Z,-0.10
2023-11-25T10:46:05.593Z,0.00
2023-11-25T10:48:34.202Z,0.00
2023-11-25T10:51:02.560Z,0.10
2023-11-25T10:53:31.282Z,0.10
2023-11-25T10:56:00.092Z,0.20
2023-11-25T10:58:29.692Z,0.30
2023-11-25T11:00:59.210Z,0.40
2023-11-25T11:03:42.215Z,0.50
2023-11-25T11:06:12.069Z,0.70
2023-11-25T11:08:42.635Z,0.80
2023-11-25T11:11:32.783Z,0.90
2023-11-25T11:14:14.738Z,1.00
2023-11-25T11:17:10.936Z,1.10
2023-11-25T11:19:42.438Z,1.20
2023-11-25T11:22:12.441Z,1.30
2023-11-25T11:24:56.450Z,1.30
2023-11-25T11:27:27.136Z,1.50
2023-11-25T11:30:00.299Z,1.60
2023-11-25T11:32:33.245Z,1.70
2023-11-25T11:35:02.553Z,1.80
2023-11-25T11:37:39.029Z,1.90
2023-11-25T11:40:08.239Z,2.00
2023-11-25T11:42:37.551Z,2.10
2023-11-25T11:45:13.155Z,2.20
2023-11-25T11:47:42.929Z,2.30
2023-11-25T11:50:12.217Z,2.40
2023-11-25T11:52:47.719Z,2.40
2023-11-25T11:55:37.834Z,2.40
2023-11-25T11:58:10.239Z,2.50
2023-11-25T12:00:43.608Z,2.50
2023-11-25T12:03:13.918Z,2.60
2023-11-25T12:05:47.603Z,2.70
2023-11-25T12:08:18.592Z,2.70
2023-11-25T12:10:49.948Z,2.80
2023-11-25T12:13:28.127Z,2.90
2023-11-25T12:16:02.680Z,2.90
2023-11-25T12:18:38.381Z,3.00
2023-11-25T12:21:10.952Z,3.10
2023-11-25T12:23:49.721Z,3.20
2023-11-25T12:26:24.562Z,3.20
2023-11-25T12:28:54.988Z,3.30
2023-11-25T12:31:25.015Z,3.40
2023-11-25T12:33:53.977Z,3.40
2023-11-25T12:36:24.222Z,3.40
2023-11-25T12:38:55.370Z,3.40
2023-11-25T12:41:25.237Z,3.50
2023-11-25T12:44:08.151Z,3.50
2023-11-25T12:46:42.311Z,3.50
2023-11-25T12:49:21.688Z,3.60
2023-11-25T12:51:55.539Z,3.60
2023-11-25T12:54:25.981Z,3.70
2023-11-25T12:56:59.369Z,3.70
2023-11-25T12:59:31.764Z,3.80
2023-11-25T13:02:11.814Z,3.80
2023-11-25T13:04:49.112Z,3.80
2023-11-25T13:07:35.998Z,3.80
2023-11-25T13:10:07.252Z,3.90
2023-11-25T13:12:39.062Z,3.90
2023-11-25T13:15:11.382Z,3.90
2023-11-25T13:17:42.439Z,3.90
2023-11-25T13:20:13.701Z,3.90
2023-11-25T13:22:43.950Z,3.90
2023-11-25T13:25:14.492Z,3.90
2023-11-25T13:27:44.683Z,3.90
2023-11-25T13:30:14.489Z,3.90
2023-11-25T13:32:47.185Z,4.00
2023-11-25T13:35:16.859Z,3.90
2023-11-25T13:37:46.359Z,3.90
2023-11-25T13:40:21.356Z,3.90
2023-11-25T13:42:50.832Z,3.90
2023-11-25T13:45:20.964Z,3.90
2023-11-25T13:47:51.418Z,3.90
2023-11-25T13:50:22.314Z,3.90
2023-11-25T13:52:52.254Z,3.90
2023-11-25T13:55:22.973Z,3.90
2023-11-25T13:57:56.480Z,3.90
2023-11-25T14:00:28.078Z,3.90
2023-11-25T14:03:01.423Z,3.80
2023-11-25T14:05:33.184Z,3.80
2023-11-25T14:08:03.112Z,3.80
2023-11-25T14:10:32.713Z,3.80
2023-11-25T14:13:00.726Z,3.80
2023-11-25T14:15:29.178Z,3.70
2023-11-25T14:17:57.331Z,3.60
2023-11-25T14:20:25.950Z,3.60
2023-11-25T14:22:54.500Z,3.50
2023-11-25T14:25:22.290Z,3.50
2023-11-25T14:27:50.095Z,3.50
2023-11-25T14:30:24.454Z,3.40
2023-11-25T14:32:53.251Z,3.40
2023-11-25T14:35:22.484Z,3.40
2023-11-25T14:37:55.257Z,3.30
2023-11-25T14:40:26.054Z,3.30
2023-11-25T14:42:54.964Z,3.30
2023-11-25T14:45:22.658Z,3.30
2023-11-25T14:47:50.449Z,3.30
2023-11-25T14:50:18.188Z,3.20
2023-11-25T14:52:46.026Z,3.10
2023-11-25T14:55:13.645Z,3.10
2023-11-25T14:57:41.412Z,3.10
2023-11-25T15:00:09.999Z,3.10
2023-11-25T15:02:41.144Z,3.00
2023-11-25T15:05:10.998Z,3.00
2023-11-25T15:07:38.624Z,2.90
2023-11-25T15:10:07.135Z,2.90
2023-11-25T15:12:35.771Z,2.80
2023-11-25T15:15:04.191Z,2.80
2023-11-25T15:17:32.058Z,2.80
2023-11-25T15:20:00.037Z,2.80
2023-11-25T15:22:28.588Z,2.70
2023-11-25T15:24:56.319Z,2.60
2023-11-25T15:27:24.024Z,2.50
2023-11-25T15:30:10.703Z,2.50
2023-11-25T15:32:43.857Z,2.40
2023-11-25T15:35:12.186Z,2.30
2023-11-25T15:37:40.444Z,2.30
2023-11-25T15:40:09.789Z,2.10
2023-11-25T15:42:37.683Z,2.10
2023-11-25T15:45:05.780Z,2.00
2023-11-25T15:47:34.450Z,1.90
2023-11-25T15:50:02.091Z,1.80
2023-11-25T15:52:29.711Z,1.70
2023-11-25T15:54:57.463Z,1.70
2023-11-25T15:57:25.324Z,1.60
2023-11-25T15:59:53.007Z,1.50
2023-11-25T16:02:21.107Z,1.40
2023-11-25T16:04:52.554Z,1.40
2023-11-25T16:07:22.251Z,1.30
2023-11-25T16:09:50.049Z,1.20
2023-11-25T16:12:17.671Z,1.10
2023-11-25T16:14:45.253Z,1.10
2023-11-25T16:17:14.523Z,1.00
2023-11-25T16:19:42.679Z,0.90
2023-11-25T16:22:10.578Z,0.80
2023-11-25T16:24:39.192Z,0.70
2023-11-25T16:27:06.689Z,0.70
2023-11-25T16:29:34.379Z,0.50
2023-11-25T16:32:03.607Z,0.40
2023-11-25T16:34:31.622Z,0.40
2023-11-25T16:36:59.580Z,0.30
2023-11-25T16:39:29.252Z,0.30
2023-11-25T16:41:59.136Z,0.30
2023-11-25T16:44:26.933Z,0.20
2023-11-25T16:46:54.572Z,0.10
2023-11-25T16:49:22.249Z,0.10
2023-11-25T16:51:50.141Z,0.00
2023-11-25T16:54:17.732Z,0.00
2023-11-25T16:56:45.267Z,0.00
2023-11-25T16:59:12.801Z,-0.10
2023-11-25T17:01:43.367Z,-0.10
2023-11-25T17:04:11.230Z,-0.20
2023-11-25T17:06:39.569Z,-0.20
2023-11-25T17:09:07.407Z,-0.20
2023-11-25T17:11:36.533Z,-0.20
2023-11-25T17:14:04.650Z,-0.30
2023-11-25T17:16:32.479Z,-0.30
2023-11-25T17:19:00.047Z,-0.40
2023-11-25T17:21:28.315Z,-0.50
2023-11-25T17:23:57.177Z,-0.60
2023-11-25T17:26:26.333Z,-0.60
2023-11-25T17:28:54.516Z,-0.60
2023-11-25T17:31:23.367Z,-0.60
2023-11-25T17:33:52.192Z,-0.70
2023-11-25T17:36:19.792Z,-0.70
2023-11-25T17:38:47.285Z,-0.70
2023-11-25T17:41:18.260Z,-0.70
2023-11-25T17:43:49.012Z,-0.80
2023-11-25T17:46:16.758Z,-0.80
2023-11-25T17:48:44.411Z,-0.80
2023-11-25T17:51:12.662Z,-0.90
2023-11-25T17:53:40.273Z,-0.90
2023-11-25T17:56:08.314Z,-0.90
2023-11-25T17:58:35.860Z,-0.90
2023-11-25T18:01:04.224Z,-1.00
2023-11-25T18:03:33.261Z,-1.00
2023-11-25T18:06:00.828Z,-1.00
2023-11-25T18:08:30.047Z,-1.00
2023-11-25T18:10:58.220Z,-1.10
2023-11-25T18:13:26.494Z,-1.10
2023-11-25T18:15:54.285Z,-1.10
2023-11-25T18:18:22.435Z,-1.20
2023-11-25T18:20:51.118Z,-1.10
2023-11-25T18:23:18.778Z,-1.10
2023-11-25T18:25:46.310Z,-1.20
2023-11-25T18:28:13.848Z,-1.20
2023-11-25T18:30:43.863Z,-1.20
2023-11-25T18:33:11.606Z,-1.20
2023-11-25T18:35:41.526Z,-1.20
2023-11-25T18:38:09.922Z,-1.30
2023-11-25T18:40:37.620Z,-1.30
2023-11-25T18:43:05.178Z,-1.30
2023-11-25T18:45:33.187Z,-1.30
2023-11-25T18:48:00.897Z,-1.30
2023-11-25T18:50:29.095Z,-1.30
2023-11-25T18:52:56.883Z,-1.30
2023-11-25T18:55:25.369Z,-1.40
2023-11-25T18:57:52.882Z,-1.30
2023-11-25T19:00:20.456Z,-1.30
2023-11-25T19:02:49.170Z,-1.30
2023-11-25T19:05:17.031Z,-1.30
2023-11-25T19:07:45.687Z,-1.20
2023-11-25T19:10:14.655Z,-1.20
2023-11-25T19:12:42.404Z,-1.10
2023-11-25T19:15:10.311Z,-1.10
2023-11-25T19:17:39.903Z,-1.10
2023-11-25T19:20:08.498Z,-1.10
2023-11-25T19:22:37.987Z,-1.10
2023-11-25T19:25:06.226Z,-1.10
2023-11-25T19:27:34.213Z,-1.20
2023-11-25T19:30:01.796Z,-1.10
2023-11-25T19:32:29.719Z,-1.10
2023-11-25T19:34:57.231Z,-1.10
2023-11-25T19:37:25.793Z,-1.20
2023-11-25T19:39:53.562Z,-1.20
2023-11-25T19:42:21.313Z,-1.20
2023-11-25T19:44:49.653Z,-1.20
2023-11-25T19:47:18.166Z,-1.20
2023-11-25T19:49:45.823Z,-1.30
2023-11-25T19:52:13.635Z,-1.30
2023-11-25T19:54:41.186Z,-1.30
2023-11-25T19:57:10.511Z,-1.30
2023-11-25T19:59:38.003Z,-1.30
2023-11-25T20:02:05.927Z,-1.30
2023-11-25T20:04:33.534Z,-1.30
2023-11-25T20:07:01.397Z,-1.30
2023-11-25T20:09:28.996Z,-1.30
2023-11-25T20:11:59.129Z,-1.30
2023-11-25T20:14:26.746Z,-1.30
2023-11-25T20:16:55.071Z,-1.30
2023-11-25T20:19:22.651Z,-1.30
2023-11-25T20:21:53.825Z,-1.30
2023-11-25T20:24:21.580Z,-1.30
2023-11-25T20:26:49.409Z,-1.30
2023-11-25T20:29:17.070Z,-1.30
2023-11-25T20:31:46.190Z,-1.30
2023-11-25T20:34:14.089Z,-1.30
2023-11-25T20:36:42.348Z,-1.30
2023-11-25T20:39:10.548Z,-1.30
2023-11-25T20:41:39.023Z,-1.30
2023-11-25T20:44:08.839Z,-1.30
2023-11-25T20:46:37.045Z,-1.40
2023-11-25T20:49:06.091Z,-1.40
2023-11-25T20:51:36.153Z,-1.40
2023-11-25T20:54:04.169Z,-1.40
2023-11-25T20:56:32.029Z,-1.30
2023-11-25T20:59:01.913Z,-1.30
2023-11-25T21:01:29.934Z,-1.30
2023-11-25T21:03:58.404Z,-1.30
2023-11-25T21:06:25.992Z,-1.40
2023-11-25T21:08:53.575Z,-1.40
2023-11-25T21:11:21.269Z,-1.40
2023-11-25T21:13:49.116Z,-1.40
2023-11-25T21:16:17.006Z,-1.50
2023-11-25T21:18:44.692Z,-1.50
2023-11-25T21:21:12.399Z,-1.50
2023-11-25T21:23:40.143Z,-1.50
2023-11-25T21:26:09.051Z,-1.50
2023-11-25T21:28:36.643Z,-1.60
2023-11-25T21:31:04.180Z,-1.60
2023-11-25T21:33:31.743Z,-1.60
2023-11-25T21:35:59.434Z,-1.60
2023-11-25T21:38:31.324Z,-1.60
2023-11-25T21:40:59.092Z,-1.70
2023-11-25T21:43:27.247Z,-1.60
2023-11-25T21:45:55.034Z,-1.60
2023-11-25T21:48:23.527Z,-1.60
2023-11-25T21:50:51.326Z,-1.60
2023-11-25T21:53:19.196Z,-1.60
2023-11-25T21:55:46.902Z,-1.60
2023-11-25T21:58:14.380Z,-1.60
2023-11-25T22:00:42.058Z,-1.60
2023-11-25T22:03:10.874Z,-1.60
2023-11-25T22:05:39.516Z,-1.60
2023-11-25T22:08:07.220Z,-1.60
2023-11-25T22:10:40.757Z,-1.60
2023-11-25T22:13:08.713Z,-1.60
2023-11-25T22:15:37.784Z,-1.50
2023-11-25T22:18:08.004Z,-1.60
2023-11-25T22:20:35.896Z,-1.50
2023-11-25T22:23:03.444Z,-1.50
2023-11-25T22:25:38.542Z,-1.50
2023-11-25T22:28:08.902Z,-1.50
2023-11-25T22:30:36.409Z,-1.50
2023-11-25T22:33:04.580Z,-1.60
2023-11-25T22:35:38.528Z,-1.60
2023-11-25T22:38:11.781Z,-1.60
2023-11-25T22:40:39.926Z,-1.60
2023-11-25T22:43:07.633Z,-1.60
2023-11-25T22:45:35.613Z,-1.60
2023-11-25T22:48:03.636Z,-1.60
2023-11-25T22:50:31.173Z,-1.60
2023-11-25T22:52:58.840Z,-1.60
2023-11-25T22:55:27.372Z,-1.70
2023-11-25T22:57:55.326Z,-1.70
2023-11-25T23:00:31.140Z,-1.80
2023-11-25T23:02:59.710Z,-1.90
2023-11-25T23:05:27.954Z,-1.90
2023-11-25T23:07:55.843Z,-1.90
2023-11-25T23:10:23.841Z,-1.90
2023-11-25T23:12:52.040Z,-2.00
2023-11-25T23:15:19.722Z,-2.00
2023-11-25T23:17:47.830Z,-2.00
2023-11-25T23:20:15.442Z,-2.00
2023-11-25T23:22:44.157Z,-2.00
2023-11-25T23:25:12.098Z,-2.00
2023-11-25T23:27:39.751Z,-2.10
2023-11-25T23:30:07.576Z,-2.10
2023-11-25T23:32:35.351Z,-2.10
2023-11-25T23:35:03.175Z,-2.20
2023-11-25T23:37:32.270Z,-2.20
2023-11-25T23:40:00.827Z,-2.20
2023-11-25T23:42:28.675Z,-2.30
2023-11-25T23:44:56.374Z,-2.30
2023-11-25T23:47:24.303Z,-2.30
2023-11-25T23:49:52.539Z,-2.30
2023-11-25T23:52:20.422Z,-2.40
2023-11-25T23:54:48.001Z,-2.40
2023-11-25T23:57:16.229Z,-2.40
2023-11-25T23:59:43.828Z,-2.40
